Terminal Aerodrome Forecast
Issued by NWS

Home | Current Version | Previous Version | Text Only | Print | Product List | Glossary On
Versions: 1 2 3 4 5 6 7 8 9 10 11 12 13 14
004
FTUS46 KLOX 152353
TAFLGB
TAF
KLGB 152353Z 1600/1624 29007KT P6SM SCT250
     FM160400 VRB03KT P6SM BKN250
     FM161400 16005KT 6SM BR SCT009 BKN250
     FM161700 20008KT P6SM SCT250=

USA.gov is the U.S. government's official web portal to all federal, state and local government web resources and services.